Time;durP1;ratioP1;P1;durP2;ratioP2;P2;SDS_P1;SDS_P2;PMS_P1;PMS_P2;Temp;Humidity;BMP_temperature;BMP_pressure;BME280_temperature;BME280_humidity;BME280_pressure;Samples;Min_cycle;Max_cycle;Signal;HPM_P1;HPM_P2
2023/04/21 00:01:57;;;;;;;29.47;22.97;;;8.50;99.90;;;-141.84;87.79;19224.50;5034034;28;20213;-58
2023/04/21 00:04:26;;;;;;;30.10;22.63;;;8.40;99.90;;;-141.84;88.33;19232.63;5034524;28;20643;-58
2023/04/21 00:06:54;;;;;;;32.17;24.23;;;8.40;99.90;;;-141.84;88.38;19224.50;5034459;28;20855;-58
2023/04/21 00:09:22;;;;;;;30.47;24.43;;;8.30;99.90;;;-141.84;88.63;19206.22;5034653;28;20206;-59
2023/04/21 00:11:50;;;;;;;31.53;23.70;;;8.20;99.90;;;-141.84;88.96;19228.56;5034613;28;20206;-59
2023/04/21 00:14:19;;;;;;;32.10;24.10;;;8.20;99.90;;;-141.84;89.07;19208.25;5034102;28;20210;-58
2023/04/21 00:16:51;;;;;;;31.97;24.43;;;8.10;99.90;;;-141.84;89.12;19246.84;5034474;28;20210;-59
2023/04/21 00:19:22;;;;;;;33.20;23.70;;;8.00;99.90;;;-141.84;89.65;19230.59;5034606;28;20229;-57
2023/04/21 00:21:50;;;;;;;33.57;24.37;;;7.90;99.90;;;-141.84;89.85;19228.56;5034253;28;20190;-59
2023/04/21 00:24:18;;;;;;;33.67;24.27;;;7.90;99.90;;;-141.84;89.70;19194.03;5034554;28;20202;-58
2023/04/21 00:26:47;;;;;;;29.83;23.43;;;7.90;99.90;;;-141.84;89.46;19196.06;5034475;28;20235;-56
2023/04/21 00:29:15;;;;;;;30.97;24.07;;;7.90;99.90;;;-141.84;89.81;19202.16;5033593;28;20210;-58
2023/04/21 00:31:43;;;;;;;30.43;23.63;;;7.80;99.90;;;-141.84;89.80;19179.78;5034378;28;20198;-58
2023/04/21 00:34:11;;;;;;;31.03;24.13;;;7.80;99.90;;;-141.84;90.32;19173.69;5034196;28;20202;-58
2023/04/21 00:36:41;;;;;;;33.53;24.83;;;7.80;99.90;;;-141.84;90.28;19200.13;5034250;28;20286;-58
2023/04/21 00:39:09;;;;;;;38.47;26.47;;;7.80;99.90;;;-141.84;90.50;19200.13;5034345;28;20237;-58
2023/04/21 00:41:38;;;;;;;35.70;25.43;;;7.80;99.90;;;-141.84;90.68;19179.78;5033993;28;20220;-57
2023/04/21 00:44:09;;;;;;;34.90;25.40;;;7.80;99.90;;;-141.84;90.75;19171.66;5033846;28;20198;-57
2023/04/21 00:46:37;;;;;;;36.73;27.37;;;7.80;99.90;;;-141.84;90.67;19175.72;5033882;28;20187;-56
2023/04/21 00:49:07;;;;;;;35.30;25.70;;;7.80;99.90;;;-141.84;91.01;19181.81;5034039;28;20602;-56
2023/04/21 00:51:37;;;;;;;35.17;26.37;;;7.80;99.90;;;-141.84;90.64;19159.47;5033719;28;20297;-59
2023/04/21 00:54:11;;;;;;;37.33;26.87;;;7.80;99.90;;;-141.84;90.64;19167.59;5034093;28;20216;-58
2023/04/21 00:56:39;;;;;;;34.60;25.97;;;7.80;99.90;;;-141.84;90.71;19198.09;5034127;28;20193;-57
2023/04/21 00:59:07;;;;;;;37.70;27.67;;;7.90;99.90;;;-141.84;90.82;19204.19;5033774;28;20222;-58
2023/04/21 01:01:36;;;;;;;37.77;27.63;;;7.90;99.90;;;-141.84;90.79;19222.47;5033550;28;20202;-57
2023/04/21 01:04:05;;;;;;;39.50;28.53;;;7.90;99.90;;;-141.84;90.44;19179.78;5033665;28;20213;-58
2023/04/21 01:06:34;;;;;;;42.17;28.17;;;8.00;99.90;;;-141.84;90.39;19210.28;5033315;28;20212;-59
2023/04/21 01:09:03;;;;;;;36.67;27.23;;;8.00;99.90;;;-141.84;90.54;19196.06;5033580;28;20202;-58
2023/04/21 01:11:33;;;;;;;40.63;27.53;;;8.00;99.90;;;-141.84;90.70;19208.25;5033856;28;20247;-57
2023/04/21 01:14:01;;;;;;;40.27;28.97;;;8.00;99.90;;;-141.84;90.66;19175.72;5033147;28;20202;-58
2023/04/21 01:16:31;;;;;;;37.23;28.47;;;8.00;99.90;;;-141.84;90.97;19175.72;5032919;28;20701;-55
2023/04/21 01:19:00;;;;;;;39.53;29.00;;;8.00;99.90;;;-141.84;91.40;19177.75;5033168;28;20202;-59
2023/04/21 01:21:39;;;;;;;40.53;28.33;;;8.00;99.90;;;-141.84;91.34;19177.75;5033497;28;20213;-57
2023/04/21 01:24:07;;;;;;;37.03;27.93;;;8.00;99.90;;;-141.84;91.05;19214.34;5033258;28;20186;-58
2023/04/21 01:26:36;;;;;;;37.20;27.70;;;8.00;99.90;;;-141.84;91.32;19181.81;5032905;28;20240;-59
2023/04/21 01:29:04;;;;;;;37.73;28.23;;;8.00;99.90;;;-141.84;91.16;19175.72;5032901;28;20198;-57
2023/04/21 01:31:32;;;;;;;39.53;27.40;;;8.00;99.90;;;-141.84;90.55;19192.00;5032912;28;20202;-58
2023/04/21 01:34:04;;;;;;;38.37;28.27;;;8.00;99.90;;;-141.84;90.82;19210.28;5032905;28;20256;-57
2023/04/21 01:36:32;;;;;;;36.60;26.83;;;8.00;99.90;;;-141.84;90.59;19181.81;5032861;28;20189;-59
2023/04/21 01:39:01;;;;;;;41.00;28.60;;;8.00;99.90;;;-141.84;90.90;19175.72;5032637;28;20233;-58
2023/04/21 01:41:30;;;;;;;38.50;27.80;;;8.00;99.90;;;-141.84;90.54;19198.09;5032808;28;20202;-57
2023/04/21 01:43:58;;;;;;;39.47;29.03;;;8.10;99.90;;;-141.84;90.58;19204.19;5032355;28;20584;-58
2023/04/21 01:46:26;;;;;;;44.17;28.67;;;8.10;99.90;;;-141.84;90.98;19183.84;5032498;28;20293;-59
2023/04/21 01:48:55;;;;;;;37.03;27.60;;;8.00;99.90;;;-141.84;90.03;19220.44;5032545;28;20296;-60
2023/04/21 01:51:23;;;;;;;35.53;27.23;;;8.10;99.90;;;-141.84;90.10;19139.16;5032489;28;20213;-57
2023/04/21 01:53:51;;;;;;;39.33;26.27;;;8.00;99.90;;;-141.84;90.94;19189.97;5031680;28;20210;-57
2023/04/21 01:56:20;;;;;;;38.87;27.13;;;8.00;99.90;;;-141.84;90.06;19194.03;5032382;28;20198;-57
2023/04/21 01:58:49;;;;;;;35.77;26.63;;;8.10;99.90;;;-141.84;89.87;19228.56;5032488;28;20206;-57
2023/04/21 02:01:17;;;;;;;33.03;26.07;;;8.00;99.90;;;-141.84;90.23;19202.16;5032465;28;20249;-58
2023/04/21 02:03:45;;;;;;;34.33;26.37;;;8.00;99.90;;;-141.84;90.16;19194.03;5032518;28;20213;-58
2023/04/21 02:06:13;;;;;;;40.03;26.87;;;8.00;99.90;;;-141.84;90.80;19183.84;5032411;28;20202;-58
2023/04/21 02:08:42;;;;;;;35.50;26.37;;;8.00;99.90;;;-141.84;90.71;19161.50;5032465;28;20206;-58
2023/04/21 02:11:10;;;;;;;33.47;25.73;;;8.00;99.90;;;-141.84;90.63;19192.00;5032401;28;20678;-58
2023/04/21 02:13:39;;;;;;;34.90;25.70;;;8.00;99.90;;;-141.84;90.07;19179.78;5032095;28;20218;-57
2023/04/21 02:16:08;;;;;;;31.97;24.43;;;8.10;99.90;;;-141.84;89.38;19196.06;5032089;28;20202;-59
2023/04/21 02:18:43;;;;;;;36.07;24.50;;;8.10;99.90;;;-141.84;89.48;19171.66;5032311;28;20220;-59
2023/04/21 02:21:11;;;;;;;29.20;23.17;;;8.10;99.90;;;-141.84;89.88;19200.13;5032245;28;20240;-58
2023/04/21 02:23:40;;;;;;;32.23;23.77;;;8.10;99.90;;;-141.84;89.52;19171.66;5032436;28;20236;-59
2023/04/21 02:26:09;;;;;;;30.07;22.97;;;8.10;99.90;;;-141.84;89.63;19196.06;5031874;28;20234;-58
2023/04/21 02:28:38;;;;;;;31.13;22.67;;;8.10;99.90;;;-141.84;90.20;19192.00;5032082;28;20202;-58
2023/04/21 02:31:07;;;;;;;30.20;23.90;;;8.00;99.90;;;-141.84;89.91;19202.16;5032540;28;20202;-58
2023/04/21 02:33:35;;;;;;;32.03;22.77;;;8.00;99.90;;;-141.84;88.78;19212.31;5032336;28;20689;-57
2023/04/21 02:36:04;;;;;;;30.50;22.53;;;8.10;99.90;;;-141.84;89.41;19177.75;5032512;28;20202;-58
2023/04/21 02:38:32;;;;;;;30.23;23.00;;;8.00;99.90;;;-141.84;89.56;19192.00;5032347;28;20205;-56
2023/04/21 02:41:00;;;;;;;35.03;23.77;;;8.00;99.90;;;-141.84;89.34;19208.25;5031985;28;20226;-57
2023/04/21 02:43:29;;;;;;;32.03;23.30;;;8.00;99.90;;;-141.84;89.36;19187.91;5031828;28;20210;-58
2023/04/21 02:45:58;;;;;;;31.73;22.00;;;8.00;99.90;;;-141.84;89.70;19177.75;5012177;28;20214;-58
2023/04/21 02:48:27;;;;;;;30.20;23.27;;;8.00;99.90;;;-141.84;90.23;19171.66;5012105;28;20215;-59
2023/04/21 02:50:55;;;;;;;33.83;23.30;;;7.90;99.90;;;-141.84;90.59;19161.50;5011632;28;20199;-59
2023/04/21 02:53:23;;;;;;;31.03;23.20;;;7.90;99.90;;;-141.84;90.00;19179.78;5012203;28;20202;-57
2023/04/21 02:55:51;;;;;;;27.13;21.53;;;7.90;99.90;;;-141.84;90.12;19169.63;5012458;28;20233;-58
2023/04/21 02:58:19;;;;;;;30.93;23.03;;;7.90;99.90;;;-141.84;90.56;19181.81;5011848;28;20208;-58
2023/04/21 03:00:48;;;;;;;34.47;23.70;;;7.80;99.90;;;-141.84;90.36;19155.41;5026833;28;20230;-58
2023/04/21 03:03:17;;;;;;;27.80;21.97;;;7.80;99.90;;;-141.84;89.88;19139.16;5031394;28;20223;-58
2023/04/21 03:05:46;;;;;;;30.13;22.67;;;7.90;99.90;;;-141.84;89.34;19208.25;5032141;28;20210;-58
2023/04/21 03:08:14;;;;;;;30.33;21.67;;;7.90;99.90;;;-141.84;89.76;19167.59;5031648;28;20577;-59
2023/04/21 03:10:42;;;;;;;31.30;22.60;;;7.90;99.90;;;-141.84;89.97;19151.34;5031771;28;20205;-59
2023/04/21 03:13:10;;;;;;;29.93;21.60;;;7.90;99.90;;;-141.84;90.12;19179.78;5031117;28;20194;-59
2023/04/21 03:15:38;;;;;;;36.07;23.20;;;7.90;99.90;;;-141.84;90.16;19157.44;5031510;28;20549;-58
2023/04/21 03:18:07;;;;;;;26.30;21.80;;;7.80;99.90;;;-141.84;90.38;19163.53;5031620;28;20256;-60
2023/04/21 03:20:36;;;;;;;31.97;21.77;;;7.80;99.90;;;-141.84;90.43;19167.59;5031507;28;20221;-60
2023/04/21 03:23:04;;;;;;;31.43;21.97;;;7.80;99.90;;;-141.84;90.55;19171.66;5030052;28;20670;-57
2023/04/21 03:25:33;;;;;;;29.93;20.63;;;7.80;99.90;;;-141.84;89.87;19165.56;5031269;28;20237;-58
2023/04/21 03:28:01;;;;;;;29.80;21.10;;;7.90;99.90;;;-141.84;89.48;19206.22;5031373;28;20202;-59
2023/04/21 03:30:29;;;;;;;27.97;21.03;;;7.80;99.90;;;-141.84;89.32;19159.47;5031000;28;20898;-59
2023/04/21 03:32:58;;;;;;;23.37;19.00;;;7.90;99.90;;;-141.84;88.13;19183.84;5031771;28;20205;-59
2023/04/21 03:35:27;;;;;;;27.50;20.17;;;7.90;99.90;;;-141.84;88.06;19171.66;5031425;28;20217;-56
2023/04/21 03:37:56;;;;;;;27.23;19.50;;;7.90;99.90;;;-141.84;87.69;19196.06;5031126;28;20206;-57
2023/04/21 03:40:24;;;;;;;25.97;19.70;;;8.00;99.90;;;-141.84;87.75;19198.09;5031411;28;20206;-58
2023/04/21 03:42:52;;;;;;;28.33;18.90;;;8.00;99.90;;;-141.84;87.23;19210.28;5031236;28;20209;-58
2023/04/21 03:45:21;;;;;;;26.20;19.23;;;8.00;99.90;;;-141.84;87.32;19187.91;5031096;28;20469;-57
2023/04/21 03:47:53;;;;;;;26.67;18.63;;;8.00;99.90;;;-141.84;88.01;19171.66;5031294;28;20202;-58
2023/04/21 03:50:22;;;;;;;29.63;19.23;;;7.90;99.90;;;-141.84;88.70;19177.75;5031073;28;20645;-55
2023/04/21 03:52:50;;;;;;;28.27;19.53;;;7.90;99.90;;;-141.84;88.20;19216.38;5031216;28;20214;-57
2023/04/21 03:55:19;;;;;;;26.27;18.47;;;7.90;99.90;;;-141.84;87.80;19194.03;5031343;28;20198;-58
2023/04/21 03:57:48;;;;;;;26.27;18.43;;;7.90;99.90;;;-141.84;88.49;19163.53;5031430;28;20217;-58
2023/04/21 04:00:16;;;;;;;22.90;18.27;;;7.80;99.90;;;-141.84;88.87;19159.47;5030563;28;20705;-57
2023/04/21 04:02:44;;;;;;;27.90;20.17;;;7.70;99.90;;;-141.84;88.50;19169.63;5030972;28;20292;-58
2023/04/21 04:05:13;;;;;;;23.90;18.23;;;7.80;99.90;;;-141.84;88.65;19153.38;5034662;28;20409;-58
2023/04/21 04:07:41;;;;;;;26.73;18.33;;;7.80;99.90;;;-141.84;88.49;19155.41;5034756;28;20206;-57
2023/04/21 04:10:10;;;;;;;24.60;18.73;;;7.70;99.90;;;-141.84;88.62;19153.38;5034540;28;20581;-59
2023/04/21 04:12:39;;;;;;;22.93;17.63;;;7.70;99.90;;;-141.84;88.65;19167.59;5034501;28;20568;-58
2023/04/21 04:15:08;;;;;;;24.37;18.30;;;7.70;99.90;;;-141.84;88.29;19159.47;5033907;28;20212;-60
2023/04/21 04:17:37;;;;;;;26.03;18.13;;;7.70;99.90;;;-141.84;88.23;19157.44;5034232;28;20701;-58
2023/04/21 04:20:08;;;;;;;25.23;18.47;;;7.70;99.90;;;-141.84;88.24;19189.97;5034330;28;20687;-59
2023/04/21 04:22:36;;;;;;;29.30;18.40;;;7.70;99.90;;;-141.84;88.37;19147.28;5034034;28;20649;-57
2023/04/21 04:25:06;;;;;;;25.10;17.13;;;7.70;99.90;;;-141.84;88.54;19135.09;5034220;28;20202;-57
2023/04/21 04:27:34;;;;;;;27.07;17.60;;;7.70;99.90;;;-141.84;88.67;19163.53;5034343;28;20621;-58
2023/04/21 04:30:08;;;;;;;25.13;17.47;;;7.60;99.90;;;-141.84;88.94;19155.41;5034016;28;20219;-58
2023/04/21 04:32:38;;;;;;;25.13;18.13;;;7.60;99.90;;;-141.84;89.59;19147.28;5033939;28;20182;-58
2023/04/21 04:35:07;;;;;;;21.07;16.97;;;7.60;99.90;;;-141.84;89.73;19153.38;5034242;28;20190;-59
2023/04/21 04:37:37;;;;;;;23.50;16.73;;;7.60;99.90;;;-141.84;88.98;19153.38;5034225;28;20210;-59
2023/04/21 04:40:09;;;;;;;25.90;17.70;;;7.60;99.90;;;-141.84;88.88;19159.47;5032861;28;20202;-57
2023/04/21 04:42:38;;;;;;;25.67;17.97;;;7.60;99.90;;;-141.84;88.47;19153.38;5033981;28;20202;-58
2023/04/21 04:45:10;;;;;;;20.57;17.37;;;7.70;99.90;;;-141.84;87.85;19169.63;5033714;28;20229;-58
2023/04/21 04:47:38;;;;;;;24.47;17.33;;;7.70;99.90;;;-141.84;87.42;19173.69;5033821;28;20273;-59
2023/04/21 04:50:07;;;;;;;22.63;17.77;;;7.80;99.90;;;-141.84;87.20;19159.47;5033917;28;20633;-60
2023/04/21 04:52:36;;;;;;;21.97;17.13;;;7.80;99.90;;;-141.84;87.40;19202.16;5033838;28;20202;-58
2023/04/21 04:55:04;;;;;;;23.00;16.47;;;7.80;99.90;;;-141.84;87.28;19183.84;5033718;28;20221;-60
2023/04/21 04:57:33;;;;;;;21.37;15.97;;;7.90;99.90;;;-141.84;87.03;19151.34;5033723;28;20225;-58
2023/04/21 05:00:01;;;;;;;20.80;16.07;;;7.90;99.90;;;-141.84;87.15;19185.88;5033874;28;20216;-58
2023/04/21 05:02:30;;;;;;;20.67;15.93;;;7.90;99.90;;;-141.84;87.20;19192.00;5033621;28;20244;-59
2023/04/21 05:04:59;;;;;;;20.17;15.43;;;8.00;99.90;;;-141.84;87.20;19171.66;5032676;28;20501;-59
2023/04/21 05:07:27;;;;;;;23.30;16.20;;;8.00;99.90;;;-141.84;86.06;19175.72;5033005;28;20670;-58
2023/04/21 05:09:55;;;;;;;25.37;16.80;;;8.20;99.90;;;-141.84;85.10;19212.31;5033074;28;20237;-57
2023/04/21 05:12:23;;;;;;;23.63;16.23;;;8.30;99.90;;;-141.84;84.68;19224.50;5033094;28;20234;-58
2023/04/21 05:14:51;;;;;;;24.17;16.37;;;8.40;99.90;;;-141.84;84.06;19236.69;5032498;28;20260;-60
2023/04/21 05:17:19;;;;;;;21.27;16.00;;;8.50;99.90;;;-141.84;83.96;19275.31;5032870;28;20202;-58
2023/04/21 05:19:49;;;;;;;20.20;16.07;;;8.60;99.90;;;-141.84;81.98;19297.66;5033047;28;20205;-59
2023/04/21 05:22:17;;;;;;;20.37;15.83;;;8.80;99.90;;;-141.84;82.01;19309.84;5032725;28;20233;-58
2023/04/21 05:24:45;;;;;;;19.73;15.87;;;9.00;99.90;;;-141.84;80.80;19328.13;5033128;28;20198;-57
2023/04/21 05:27:14;;;;;;;20.10;14.70;;;9.20;99.90;;;-141.84;80.12;19354.56;5032969;28;20237;-59
2023/04/21 05:29:42;;;;;;;22.53;16.33;;;9.40;99.90;;;-141.84;79.72;19383.00;5032740;28;20210;-59
2023/04/21 05:32:11;;;;;;;20.00;15.10;;;9.50;99.90;;;-141.84;79.00;19362.69;5032660;28;20206;-58
2023/04/21 05:34:39;;;;;;;19.07;15.10;;;9.60;99.90;;;-141.84;77.85;19360.66;5032882;28;20229;-59
2023/04/21 05:37:11;;;;;;;19.80;14.63;;;9.80;99.90;;;-141.84;77.10;19419.59;5032950;28;20206;-58
2023/04/21 05:39:39;;;;;;;17.87;13.90;;;9.90;99.90;;;-141.84;76.60;19399.25;5032924;28;20187;-58
2023/04/21 05:42:10;;;;;;;20.10;14.40;;;10.00;99.90;;;-141.84;76.44;19403.31;5032273;28;20237;-58
2023/04/21 05:44:39;;;;;;;19.23;14.17;;;10.10;99.90;;;-141.84;76.49;19433.81;5032482;28;20197;-56
2023/04/21 05:47:07;;;;;;;18.93;13.87;;;10.10;99.90;;;-141.84;75.87;19448.03;5032320;28;20213;-57
2023/04/21 05:49:35;;;;;;;18.20;14.27;;;10.30;99.90;;;-141.84;75.79;19504.94;5032390;28;20208;-58
2023/04/21 05:52:04;;;;;;;19.37;13.77;;;10.40;99.90;;;-141.84;74.58;19504.94;5032233;28;20624;-58
2023/04/21 05:54:35;;;;;;;17.43;12.50;;;10.50;99.90;;;-141.84;74.50;19492.75;5032562;28;20207;-58
2023/04/21 05:57:04;;;;;;;19.00;13.30;;;10.60;99.90;;;-141.84;73.91;19537.44;5029651;28;20221;-59
2023/04/21 05:59:32;;;;;;;21.67;14.03;;;10.70;99.90;;;-141.84;74.10;19551.69;5032133;28;20210;-59
2023/04/21 06:02:02;;;;;;;21.53;14.73;;;10.80;99.90;;;-141.84;73.98;19523.22;5032144;28;20233;-60
2023/04/21 06:04:30;;;;;;;20.23;13.27;;;10.80;99.90;;;-141.84;73.57;19521.19;5032166;28;20430;-58
2023/04/21 06:07:05;;;;;;;18.70;13.40;;;10.90;99.90;;;-141.84;73.52;19529.31;5032078;28;20688;-57
2023/04/21 06:09:33;;;;;;;22.90;13.87;;;10.90;99.90;;;-141.84;73.74;19533.38;5031816;28;20680;-60
2023/04/21 06:12:03;;;;;;;19.87;13.40;;;10.90;99.90;;;-141.84;73.57;19551.69;5032416;28;20202;-59
2023/04/21 06:14:33;;;;;;;19.33;13.10;;;11.00;99.90;;;-141.84;73.94;19529.31;5031905;28;20205;-60
2023/04/21 06:17:01;;;;;;;19.00;12.70;;;11.10;99.90;;;-141.84;73.18;19622.81;5032112;28;20202;-60
2023/04/21 06:19:29;;;;;;;16.00;12.93;;;11.10;99.90;;;-141.84;72.28;19551.69;5032237;28;20198;-60
2023/04/21 06:21:57;;;;;;;19.47;13.40;;;11.20;99.90;;;-141.84;72.67;19572.00;5032198;28;20221;-57
2023/04/21 06:24:25;;;;;;;19.67;12.80;;;11.20;99.90;;;-141.84;72.41;19576.06;5032490;28;20206;-59
2023/04/21 06:26:53;;;;;;;17.40;12.43;;;11.30;99.90;;;-141.84;72.95;19551.69;5031401;28;20870;-59
2023/04/21 06:29:23;;;;;;;19.40;12.40;;;11.30;99.90;;;-141.84;72.85;19602.47;5031672;28;20206;-59
2023/04/21 06:31:51;;;;;;;19.13;12.77;;;11.40;99.90;;;-141.84;72.34;19630.94;5031825;28;20198;-60
2023/04/21 06:34:20;;;;;;;20.23;12.90;;;11.50;99.90;;;-141.84;72.25;19622.81;5031796;28;20226;-59
2023/04/21 06:36:48;;;;;;;18.87;12.57;;;11.60;99.90;;;-141.84;72.22;19643.13;5031779;28;20206;-60
2023/04/21 06:39:16;;;;;;;18.37;12.77;;;11.60;99.90;;;-141.84;71.51;19635.00;5031925;28;20205;-60
2023/04/21 06:41:45;;;;;;;22.97;12.20;;;11.70;99.90;;;-141.84;71.41;19647.19;5031904;28;20202;-59
2023/04/21 06:44:13;;;;;;;18.83;12.03;;;11.70;99.90;;;-141.84;71.08;19628.91;5031763;28;20205;-58
2023/04/21 06:46:43;;;;;;;18.93;12.27;;;11.80;99.90;;;-141.84;70.25;19675.63;5031558;28;20698;-59
2023/04/21 06:49:11;;;;;;;17.33;12.57;;;11.80;99.90;;;-141.84;70.15;19689.88;5031856;28;20692;-58
2023/04/21 06:51:39;;;;;;;16.07;11.97;;;11.90;99.90;;;-141.84;69.75;19665.47;5031892;28;20207;-59
2023/04/21 06:54:07;;;;;;;15.33;11.10;;;11.90;99.90;;;-141.84;70.07;19639.06;5031896;28;20699;-59
2023/04/21 06:56:35;;;;;;;16.10;11.13;;;11.90;99.90;;;-141.84;69.79;19706.13;5031461;28;20611;-58
2023/04/21 06:59:04;;;;;;;16.93;10.63;;;11.90;99.90;;;-141.84;70.04;19683.78;5031774;28;20225;-59
2023/04/21 07:01:32;;;;;;;17.10;11.87;;;12.00;99.90;;;-141.84;69.22;19677.66;5031592;28;20198;-59
2023/04/21 07:04:01;;;;;;;16.03;11.23;;;12.00;99.90;;;-141.84;69.00;19720.34;5031679;28;20222;-58
2023/04/21 07:06:30;;;;;;;18.43;12.17;;;12.10;99.90;;;-141.84;69.71;19675.63;5031342;28;20210;-57
2023/04/21 07:08:58;;;;;;;15.17;11.57;;;12.10;99.90;;;-141.84;68.78;19779.28;5031522;28;20206;-60
2023/04/21 07:11:27;;;;;;;18.60;11.03;;;12.10;99.90;;;-141.84;68.11;19726.44;5031473;28;20198;-60
2023/04/21 07:13:56;;;;;;;18.57;10.93;;;12.20;99.90;;;-141.84;67.31;19744.75;5031375;28;20202;-57
2023/04/21 07:16:24;;;;;;;14.50;10.80;;;12.30;99.90;;;-141.84;67.53;19763.03;5027880;28;20212;-54
2023/04/21 07:18:52;;;;;;;20.00;10.97;;;12.30;99.90;;;-141.84;67.45;19793.50;5030721;28;20205;-56
2023/04/21 07:21:25;;;;;;;19.73;10.67;;;12.40;99.90;;;-141.84;67.45;19781.31;5030940;28;20225;-56
2023/04/21 07:23:54;;;;;;;15.20;10.00;;;12.40;99.90;;;-141.84;66.69;19824.00;5030831;28;20222;-55
2023/04/21 07:26:22;;;;;;;13.17;9.67;;;12.60;99.90;;;-141.84;65.98;19854.50;5031094;28;20230;-56
2023/04/21 07:28:51;;;;;;;14.63;10.67;;;12.70;99.90;;;-141.84;64.45;19895.13;5031131;28;20206;-55
2023/04/21 07:31:19;;;;;;;15.93;10.17;;;13.00;99.90;;;-141.84;63.35;19911.41;5030563;28;20216;-57
2023/04/21 07:33:48;;;;;;;14.50;10.20;;;13.20;99.90;;;-141.84;62.90;19911.41;5030741;28;20610;-56
2023/04/21 07:36:16;;;;;;;15.00;10.65;;;13.30;99.90;;;-141.84;63.06;19880.91;5030987;28;20213;-58
2023/04/21 07:38:45;;;;;;;17.50;10.23;;;13.30;99.90;;;-141.84;64.34;19895.13;5033916;28;20304;-57
2023/04/21 07:41:14;;;;;;;10.80;9.00;;;13.20;99.90;;;-141.84;62.87;19895.13;5034540;28;20789;-57
2023/04/21 07:43:42;;;;;;;16.73;9.80;;;13.20;99.90;;;-141.84;62.76;19927.66;5034672;28;20226;-58
2023/04/21 07:46:12;;;;;;;14.13;9.93;;;13.30;99.90;;;-141.84;62.16;19941.88;5034687;28;20198;-55
2023/04/21 07:48:40;;;;;;;13.07;9.47;;;13.30;99.90;;;-141.84;62.44;19943.91;5035057;28;20210;-55
2023/04/21 07:51:08;;;;;;;13.90;10.13;;;13.30;99.90;;;-141.84;62.45;19980.50;5034573;28;20194;-56
2023/04/21 07:53:36;;;;;;;14.90;8.77;;;13.30;99.90;;;-141.84;62.39;19956.09;5034875;28;20205;-57
2023/04/21 07:56:07;;;;;;;12.90;9.30;;;13.40;99.90;;;-141.84;62.13;19947.97;5034380;28;20202;-57
2023/04/21 07:58:35;;;;;;;15.23;9.10;;;13.50;99.90;;;-141.84;62.09;20000.81;5034473;28;20288;-58
2023/04/21 08:01:04;;;;;;;15.20;10.10;;;13.50;99.90;;;-141.84;62.12;20031.31;5034026;28;20705;-56
2023/04/21 08:03:32;;;;;;;14.57;9.37;;;13.60;99.90;;;-141.84;62.28;20037.41;5034418;28;20682;-57
2023/04/21 08:06:01;;;;;;;15.25;9.15;;;13.60;99.90;;;-141.84;62.16;20000.81;5034101;28;20688;-56
2023/04/21 08:08:30;;;;;;;14.75;10.07;;;13.70;99.90;;;-141.84;61.31;20029.28;5033803;28;20214;-55
2023/04/21 08:10:59;;;;;;;16.08;9.05;;;13.80;99.90;;;-141.84;61.47;20055.69;5034321;28;20216;-56
2023/04/21 08:13:29;;;;;;;12.85;9.27;;;13.80;99.90;;;-141.84;60.51;20047.56;5033790;28;20262;-57
2023/04/21 08:15:57;;;;;;;15.13;9.85;;;13.80;99.90;;;-141.84;60.40;20021.16;5033825;28;20202;-56
2023/04/21 08:18:25;;;;;;;15.10;9.25;;;13.80;99.90;;;-141.84;60.95;20055.69;5033752;28;20300;-58
2023/04/21 08:20:56;;;;;;;15.50;9.73;;;13.90;99.90;;;-141.84;60.97;20086.19;5034137;28;20595;-56
2023/04/21 08:23:24;;;;;;;13.40;9.13;;;13.90;99.90;;;-141.84;60.01;20061.78;5033858;28;20206;-58
2023/04/21 08:25:52;;;;;;;16.52;9.02;;;14.00;99.90;;;-141.84;60.04;20098.38;5033151;28;20312;-56
2023/04/21 08:28:20;;;;;;;12.63;8.60;;;14.10;99.90;;;-141.84;58.92;20120.75;5033816;28;20202;-59
2023/04/21 08:30:50;;;;;;;10.65;7.82;;;14.20;99.90;;;-141.84;57.38;20212.19;5033655;28;20685;-56
2023/04/21 08:33:18;;;;;;;13.30;8.85;;;14.30;99.90;;;-141.84;57.40;20171.56;5032091;28;20221;-58
2023/04/21 08:35:46;;;;;;;12.27;8.10;;;14.40;99.90;;;-141.84;57.46;20183.75;5032426;28;20228;-56
2023/04/21 08:38:31;;;;;;;13.32;9.07;;;14.50;99.90;;;-141.84;57.06;20189.84;5032419;28;20244;-57
2023/04/21 08:41:00;;;;;;;16.08;9.13;;;14.60;99.90;;;-141.84;56.61;20208.13;5031991;28;20661;-58
2023/04/21 08:43:29;;;;;;;11.35;8.48;;;14.70;99.90;;;-141.84;56.62;20236.59;5032246;28;20226;-57
2023/04/21 08:46:00;;;;;;;14.35;8.07;;;14.80;99.90;;;-141.84;56.28;20246.75;5032057;28;20213;-59
2023/04/21 08:48:29;;;;;;;10.77;7.30;;;14.90;99.90;;;-141.84;54.93;20269.13;5030964;28;20202;-58
2023/04/21 08:50:58;;;;;;;14.52;8.23;;;15.00;99.90;;;-141.84;54.79;20267.09;5029870;28;20198;-59
2023/04/21 08:53:27;;;;;;;16.15;7.35;;;15.10;99.90;;;-141.84;53.94;20309.75;5032461;28;20689;-58
2023/04/21 08:55:56;;;;;;;8.32;6.65;;;15.20;99.90;;;-141.84;53.44;20324.00;5032403;28;20205;-58
2023/04/21 08:58:37;;;;;;;9.43;7.50;;;15.20;99.90;;;-141.84;53.74;20313.84;5031992;28;20194;-58
2023/04/21 09:01:07;;;;;;;13.77;7.30;;;15.30;99.90;;;-141.84;53.89;20313.84;5031855;28;20202;-56
2023/04/21 09:03:35;;;;;;;8.05;7.15;;;15.40;99.90;;;-141.84;52.82;20387.00;5030965;28;20720;-55
2023/04/21 09:06:06;;;;;;;13.38;7.68;;;15.50;99.90;;;-141.84;52.59;20393.09;5031598;28;20209;-56
2023/04/21 09:08:38;;;;;;;10.45;7.13;;;15.50;99.90;;;-141.84;51.48;20374.81;5027788;28;20194;-56
2023/04/21 09:11:07;;;;;;;9.68;6.93;;;15.60;99.90;;;-141.84;51.77;20389.03;5031790;28;20205;-57
2023/04/21 09:13:37;;;;;;;10.30;6.68;;;15.70;99.90;;;-141.84;51.85;20409.38;5031534;28;20557;-56
2023/04/21 09:16:17;;;;;;;13.27;7.57;;;15.70;99.90;;;-141.84;51.16;20431.72;5031731;28;20209;-57
2023/04/21 09:18:45;;;;;;;11.82;6.45;;;15.80;99.90;;;-141.84;51.80;20407.34;5029610;28;20237;-59
2023/04/21 09:21:17;;;;;;;11.25;6.63;;;15.80;99.90;;;-141.84;51.40;20447.97;5030346;28;20670;-58
2023/04/21 09:23:48;;;;;;;7.97;6.40;;;16.00;99.90;;;-141.84;51.22;20476.44;5031685;28;20221;-57
2023/04/21 09:26:20;;;;;;;9.00;6.50;;;16.10;99.90;;;-141.84;51.36;20476.44;5030972;28;20244;-56
2023/04/21 09:28:50;;;;;;;12.40;6.13;;;16.20;99.90;;;-141.84;50.73;20523.19;5031325;28;20201;-56
2023/04/21 09:31:23;;;;;;;10.85;6.63;;;16.20;99.90;;;-141.84;49.71;20582.16;5031429;28;20268;-58
2023/04/21 09:33:54;;;;;;;9.40;6.50;;;16.40;99.90;;;-141.84;49.57;20521.16;5031099;28;20200;-59
2023/04/21 09:36:30;;;;;;;7.90;6.25;;;16.50;99.90;;;-141.84;49.67;20622.81;5029810;28;20865;-58
2023/04/21 09:39:01;;;;;;;11.00;6.38;;;16.50;99.90;;;-141.84;50.21;20559.78;5031348;28;20194;-59
2023/04/21 09:41:49;;;;;;;10.77;6.95;;;16.50;99.90;;;-141.84;49.94;20567.91;5024023;28;20234;-57
2023/04/21 09:44:18;;;;;;;10.10;6.28;;;16.60;99.90;;;-141.84;48.97;20584.19;5031011;28;20827;-55
2023/04/21 09:46:50;;;;;;;10.68;6.10;;;16.60;99.90;;;-141.84;47.59;20602.47;5030420;28;20599;-57
2023/04/21 09:49:22;;;;;;;9.00;5.47;;;16.70;99.90;;;-141.84;47.84;20598.41;5030006;28;20194;-55
2023/04/21 09:51:52;;;;;;;12.75;6.22;;;16.70;99.90;;;-141.84;48.09;20649.22;5029117;28;20594;-54
2023/04/21 09:54:30;;;;;;;11.70;5.85;;;16.80;99.90;;;-141.84;47.83;20643.13;5037638;28;20203;-55
2023/04/21 09:57:01;;;;;;;5.72;4.75;;;16.80;99.90;;;-141.84;47.16;20669.56;5023170;28;20248;-56
2023/04/21 09:59:34;;;;;;;12.88;5.55;;;17.00;99.90;;;-141.84;46.53;20691.91;5029226;28;20627;-57
2023/04/21 10:02:07;;;;;;;9.23;4.97;;;17.10;99.90;;;-141.84;45.31;20744.78;5030929;28;20198;-58
2023/04/21 10:04:41;;;;;;;11.93;4.75;;;17.20;99.90;;;-141.84;45.33;20740.69;5030052;28;20689;-57
2023/04/21 10:07:11;;;;;;;8.75;4.10;;;17.20;99.90;;;-141.84;44.28;20732.56;5027807;28;20205;-57